sensor_id;sensor_type;location;lat;lon;timestamp;temperature;humidity
262;DHT22;114;48.260;10.988;2022-11-27T00:00:36;0.50;99.90
262;DHT22;114;48.260;10.988;2022-11-27T00:03:01;0.50;99.90
262;DHT22;114;48.260;10.988;2022-11-27T00:05:27;0.50;99.90
262;DHT22;114;48.260;10.988;2022-11-27T00:07:53;0.50;99.90
262;DHT22;114;48.260;10.988;2022-11-27T00:10:18;0.40;99.90
262;DHT22;114;48.260;10.988;2022-11-27T00:12:44;0.40;99.90
262;DHT22;114;48.260;10.988;2022-11-27T00:15:10;0.30;99.90
262;DHT22;114;48.260;10.988;2022-11-27T00:17:37;0.30;99.90
262;DHT22;114;48.260;10.988;2022-11-27T00:20:04;0.40;99.90
262;DHT22;114;48.260;10.988;2022-11-27T00:22:30;0.20;99.90
262;DHT22;114;48.260;10.988;2022-11-27T00:24:56;0.20;99.90
262;DHT22;114;48.260;10.988;2022-11-27T00:27:23;0.20;99.90
262;DHT22;114;48.260;10.988;2022-11-27T00:29:49;0.10;99.90
262;DHT22;114;48.260;10.988;2022-11-27T00:32:15;0.10;99.90
262;DHT22;114;48.260;10.988;2022-11-27T00:34:42;0.20;99.90
262;DHT22;114;48.260;10.988;2022-11-27T00:37:08;0.00;99.90
262;DHT22;114;48.260;10.988;2022-11-27T00:39:35;-0.10;99.90
262;DHT22;114;48.260;10.988;2022-11-27T00:42:01;-0.10;99.90
262;DHT22;114;48.260;10.988;2022-11-27T00:44:26;-0.20;99.90
262;DHT22;114;48.260;10.988;2022-11-27T00:46:52;-0.30;99.90
262;DHT22;114;48.260;10.988;2022-11-27T00:49:18;-0.40;99.90
262;DHT22;114;48.260;10.988;2022-11-27T00:51:47;-0.50;99.90
262;DHT22;114;48.260;10.988;2022-11-27T00:54:13;-0.40;99.90
262;DHT22;114;48.260;10.988;2022-11-27T00:56:39;-0.60;99.90
262;DHT22;114;48.260;10.988;2022-11-27T00:59:06;-0.70;99.90
262;DHT22;114;48.260;10.988;2022-11-27T01:01:37;-0.70;99.90
262;DHT22;114;48.260;10.988;2022-11-27T01:04:05;-0.70;99.90
262;DHT22;114;48.260;10.988;2022-11-27T01:06:31;-0.80;99.90
262;DHT22;114;48.260;10.988;2022-11-27T01:08:59;-0.80;99.90
262;DHT22;114;48.260;10.988;2022-11-27T01:11:28;-0.90;99.90
262;DHT22;114;48.260;10.988;2022-11-27T01:14:11;-0.90;99.90
262;DHT22;114;48.260;10.988;2022-11-27T01:16:38;-0.80;99.90
262;DHT22;114;48.260;10.988;2022-11-27T01:19:05;-0.90;99.90
262;DHT22;114;48.260;10.988;2022-11-27T01:21:33;-0.80;99.90
262;DHT22;114;48.260;10.988;2022-11-27T01:24:00;-0.80;99.90
262;DHT22;114;48.260;10.988;2022-11-27T01:26:28;-0.80;99.90
262;DHT22;114;48.260;10.988;2022-11-27T01:28:55;-0.90;99.90
262;DHT22;114;48.260;10.988;2022-11-27T01:31:24;-0.90;99.90
262;DHT22;114;48.260;10.988;2022-11-27T01:34:04;-1.00;99.90
262;DHT22;114;48.260;10.988;2022-11-27T01:36:33;-1.00;99.90
262;DHT22;114;48.260;10.988;2022-11-27T01:39:03;-1.00;99.90
262;DHT22;114;48.260;10.988;2022-11-27T01:41:34;-1.00;99.90
262;DHT22;114;48.260;10.988;2022-11-27T01:44:02;-0.90;99.90
262;DHT22;114;48.260;10.988;2022-11-27T01:46:47;-1.00;99.90
262;DHT22;114;48.260;10.988;2022-11-27T01:51:58;-1.00;99.90
262;DHT22;114;48.260;10.988;2022-11-27T01:57:23;-1.20;99.90
262;DHT22;114;48.260;10.988;2022-11-27T01:59:50;-1.30;99.90
262;DHT22;114;48.260;10.988;2022-11-27T02:02:17;-1.30;99.90
262;DHT22;114;48.260;10.988;2022-11-27T02:04:45;-1.40;99.90
262;DHT22;114;48.260;10.988;2022-11-27T02:07:11;-1.30;99.90
262;DHT22;114;48.260;10.988;2022-11-27T02:09:37;-1.40;99.90
262;DHT22;114;48.260;10.988;2022-11-27T02:12:17;-1.40;99.90
262;DHT22;114;48.260;10.988;2022-11-27T02:20:37;-1.40;99.90
262;DHT22;114;48.260;10.988;2022-11-27T02:26:08;-1.40;99.90
262;DHT22;114;48.260;10.988;2022-11-27T02:31:39;-1.40;99.90
262;DHT22;114;48.260;10.988;2022-11-27T02:36:43;-1.50;99.90
262;DHT22;114;48.260;10.988;2022-11-27T02:39:16;-1.40;99.90
262;DHT22;114;48.260;10.988;2022-11-27T02:41:59;-1.60;99.90
262;DHT22;114;48.260;10.988;2022-11-27T02:44:29;-1.60;99.90
262;DHT22;114;48.260;10.988;2022-11-27T02:46:56;-1.60;99.90
262;DHT22;114;48.260;10.988;2022-11-27T02:49:22;-1.70;99.90
262;DHT22;114;48.260;10.988;2022-11-27T02:51:52;-1.70;99.90
262;DHT22;114;48.260;10.988;2022-11-27T02:54:24;-1.80;99.90
262;DHT22;114;48.260;10.988;2022-11-27T02:56:51;-1.90;99.90
262;DHT22;114;48.260;10.988;2022-11-27T02:59:19;-2.10;99.90
262;DHT22;114;48.260;10.988;2022-11-27T03:01:56;-1.90;99.90
262;DHT22;114;48.260;10.988;2022-11-27T03:04:37;-1.80;99.90
262;DHT22;114;48.260;10.988;2022-11-27T03:07:10;-1.90;99.90
262;DHT22;114;48.260;10.988;2022-11-27T03:09:43;-2.00;99.90
262;DHT22;114;48.260;10.988;2022-11-27T03:12:11;-1.90;99.90
262;DHT22;114;48.260;10.988;2022-11-27T03:14:41;-1.90;99.90
262;DHT22;114;48.260;10.988;2022-11-27T03:20:02;-1.90;99.90
262;DHT22;114;48.260;10.988;2022-11-27T03:22:30;-1.90;99.90
262;DHT22;114;48.260;10.988;2022-11-27T03:24:57;-1.90;99.90
262;DHT22;114;48.260;10.988;2022-11-27T03:27:29;-1.80;99.90
262;DHT22;114;48.260;10.988;2022-11-27T03:30:00;-1.90;99.90
262;DHT22;114;48.260;10.988;2022-11-27T03:32:28;-2.40;99.90
262;DHT22;114;48.260;10.988;2022-11-27T03:34:55;-1.90;99.90
262;DHT22;114;48.260;10.988;2022-11-27T03:37:22;-1.90;99.90
262;DHT22;114;48.260;10.988;2022-11-27T03:39:49;-1.90;99.90
262;DHT22;114;48.260;10.988;2022-11-27T03:50:12;-1.90;99.90
262;DHT22;114;48.260;10.988;2022-11-27T03:55:22;-2.00;99.90
262;DHT22;114;48.260;10.988;2022-11-27T03:57:59;-2.00;99.90
262;DHT22;114;48.260;10.988;2022-11-27T04:00:30;-2.00;99.90
262;DHT22;114;48.260;10.988;2022-11-27T04:02:57;-2.00;99.90
262;DHT22;114;48.260;10.988;2022-11-27T04:05:24;-2.10;99.90
262;DHT22;114;48.260;10.988;2022-11-27T04:07:50;-2.10;99.90
262;DHT22;114;48.260;10.988;2022-11-27T04:10:18;-2.20;99.90
262;DHT22;114;48.260;10.988;2022-11-27T04:12:43;-2.20;99.90
262;DHT22;114;48.260;10.988;2022-11-27T04:15:10;-2.10;99.90
262;DHT22;114;48.260;10.988;2022-11-27T04:17:37;-2.20;99.90
262;DHT22;114;48.260;10.988;2022-11-27T04:20:03;-2.10;99.90
262;DHT22;114;48.260;10.988;2022-11-27T04:22:30;-2.10;99.90
262;DHT22;114;48.260;10.988;2022-11-27T04:24:56;-2.30;99.90
262;DHT22;114;48.260;10.988;2022-11-27T04:27:21;-2.40;99.90
262;DHT22;114;48.260;10.988;2022-11-27T04:29:47;-2.30;99.90
262;DHT22;114;48.260;10.988;2022-11-27T04:32:13;-2.30;99.90
262;DHT22;114;48.260;10.988;2022-11-27T04:34:39;-2.40;99.90
262;DHT22;114;48.260;10.988;2022-11-27T04:37:06;-2.40;99.90
262;DHT22;114;48.260;10.988;2022-11-27T04:39:32;-2.40;99.90
262;DHT22;114;48.260;10.988;2022-11-27T04:41:58;-2.40;99.90
262;DHT22;114;48.260;10.988;2022-11-27T04:44:26;-2.40;99.90
262;DHT22;114;48.260;10.988;2022-11-27T04:46:52;-2.30;99.90
262;DHT22;114;48.260;10.988;2022-11-27T04:49:18;-2.30;99.90
262;DHT22;114;48.260;10.988;2022-11-27T04:51:43;-2.20;99.90
262;DHT22;114;48.260;10.988;2022-11-27T04:54:10;-2.10;99.90
262;DHT22;114;48.260;10.988;2022-11-27T04:56:37;-2.00;99.90
262;DHT22;114;48.260;10.988;2022-11-27T04:59:03;-2.00;99.90
262;DHT22;114;48.260;10.988;2022-11-27T05:01:29;-1.90;99.90
262;DHT22;114;48.260;10.988;2022-11-27T05:03:55;-1.90;99.90
262;DHT22;114;48.260;10.988;2022-11-27T05:06:21;-1.80;99.90
262;DHT22;114;48.260;10.988;2022-11-27T05:08:48;-1.80;99.90
262;DHT22;114;48.260;10.988;2022-11-27T05:11:15;-2.30;99.90
262;DHT22;114;48.260;10.988;2022-11-27T05:13:42;-1.90;99.90
262;DHT22;114;48.260;10.988;2022-11-27T05:16:08;-1.90;99.90
262;DHT22;114;48.260;10.988;2022-11-27T05:18:34;-1.70;99.90
262;DHT22;114;48.260;10.988;2022-11-27T05:21:03;-1.90;99.90
262;DHT22;114;48.260;10.988;2022-11-27T05:23:30;-1.90;99.90
262;DHT22;114;48.260;10.988;2022-11-27T05:25:56;-1.90;99.90
262;DHT22;114;48.260;10.988;2022-11-27T05:28:22;-1.80;99.90
262;DHT22;114;48.260;10.988;2022-11-27T05:30:48;-1.90;99.90
262;DHT22;114;48.260;10.988;2022-11-27T05:33:15;-1.80;99.90
262;DHT22;114;48.260;10.988;2022-11-27T05:35:41;-1.70;99.90
262;DHT22;114;48.260;10.988;2022-11-27T05:38:07;-1.70;99.90
262;DHT22;114;48.260;10.988;2022-11-27T05:40:33;-1.80;99.90
262;DHT22;114;48.260;10.988;2022-11-27T05:43:00;-1.80;99.90
262;DHT22;114;48.260;10.988;2022-11-27T05:45:27;-1.80;99.90
262;DHT22;114;48.260;10.988;2022-11-27T05:47:53;-1.80;99.90
262;DHT22;114;48.260;10.988;2022-11-27T05:50:19;-1.80;99.90
262;DHT22;114;48.260;10.988;2022-11-27T05:52:45;-1.70;99.90
262;DHT22;114;48.260;10.988;2022-11-27T05:55:11;-1.80;99.90
262;DHT22;114;48.260;10.988;2022-11-27T05:57:37;-2.20;99.90
262;DHT22;114;48.260;10.988;2022-11-27T06:00:04;-1.70;99.90
262;DHT22;114;48.260;10.988;2022-11-27T06:02:30;-1.70;99.90
262;DHT22;114;48.260;10.988;2022-11-27T06:04:57;-1.60;99.90
262;DHT22;114;48.260;10.988;2022-11-27T06:07:23;-1.70;99.90
262;DHT22;114;48.260;10.988;2022-11-27T06:09:49;-2.20;99.90
262;DHT22;114;48.260;10.988;2022-11-27T06:12:15;-1.80;99.90
262;DHT22;114;48.260;10.988;2022-11-27T06:14:42;-1.90;99.90
262;DHT22;114;48.260;10.988;2022-11-27T06:17:08;-2.00;99.90
262;DHT22;114;48.260;10.988;2022-11-27T06:19:35;-2.00;99.90
262;DHT22;114;48.260;10.988;2022-11-27T06:22:00;-1.60;99.90
262;DHT22;114;48.260;10.988;2022-11-27T06:24:26;-0.60;99.90
262;DHT22;114;48.260;10.988;2022-11-27T06:26:52;-0.60;99.90
262;DHT22;114;48.260;10.988;2022-11-27T06:29:21;-0.50;99.90
262;DHT22;114;48.260;10.988;2022-11-27T06:31:47;-0.60;99.90
262;DHT22;114;48.260;10.988;2022-11-27T06:34:13;-0.30;99.90
262;DHT22;114;48.260;10.988;2022-11-27T06:36:39;-0.40;99.90
262;DHT22;114;48.260;10.988;2022-11-27T06:39:06;-0.30;99.90
262;DHT22;114;48.260;10.988;2022-11-27T06:41:33;-0.20;99.90
262;DHT22;114;48.260;10.988;2022-11-27T06:44:01;0.10;99.90
262;DHT22;114;48.260;10.988;2022-11-27T06:46:28;-0.40;99.90
262;DHT22;114;48.260;10.988;2022-11-27T06:48:55;-0.10;99.90
262;DHT22;114;48.260;10.988;2022-11-27T06:51:23;0.00;99.90
262;DHT22;114;48.260;10.988;2022-11-27T06:53:50;0.10;99.90
262;DHT22;114;48.260;10.988;2022-11-27T06:56:19;-0.10;99.90
262;DHT22;114;48.260;10.988;2022-11-27T06:58:50;-0.30;99.90
262;DHT22;114;48.260;10.988;2022-11-27T07:01:16;-0.80;99.90
262;DHT22;114;48.260;10.988;2022-11-27T07:03:42;-1.10;99.90
262;DHT22;114;48.260;10.988;2022-11-27T07:06:13;-1.40;99.90
262;DHT22;114;48.260;10.988;2022-11-27T07:08:39;-1.40;99.90
262;DHT22;114;48.260;10.988;2022-11-27T07:11:15;-1.60;99.90
262;DHT22;114;48.260;10.988;2022-11-27T07:13:43;-1.60;99.90
262;DHT22;114;48.260;10.988;2022-11-27T07:16:10;-1.60;99.80
262;DHT22;114;48.260;10.988;2022-11-27T07:18:40;-1.60;99.90
262;DHT22;114;48.260;10.988;2022-11-27T07:21:07;-1.60;99.60
262;DHT22;114;48.260;10.988;2022-11-27T07:23:34;-1.70;99.30
262;DHT22;114;48.260;10.988;2022-11-27T07:26:09;-1.70;99.30
262;DHT22;114;48.260;10.988;2022-11-27T07:28:36;-1.70;99.40
262;DHT22;114;48.260;10.988;2022-11-27T07:31:03;-1.60;99.60
262;DHT22;114;48.260;10.988;2022-11-27T07:33:29;-1.50;99.20
262;DHT22;114;48.260;10.988;2022-11-27T07:36:03;-1.90;98.50
262;DHT22;114;48.260;10.988;2022-11-27T07:38:30;-1.40;98.30
262;DHT22;114;48.260;10.988;2022-11-27T07:41:00;-1.50;97.90
262;DHT22;114;48.260;10.988;2022-11-27T07:43:29;-1.70;97.40
262;DHT22;114;48.260;10.988;2022-11-27T07:45:56;-1.40;97.30
262;DHT22;114;48.260;10.988;2022-11-27T07:48:22;-1.30;97.10
262;DHT22;114;48.260;10.988;2022-11-27T07:50:48;-1.30;97.00
262;DHT22;114;48.260;10.988;2022-11-27T07:53:13;-1.00;97.00
262;DHT22;114;48.260;10.988;2022-11-27T07:55:41;-1.20;96.90
262;DHT22;114;48.260;10.988;2022-11-27T07:58:07;-1.10;96.50
262;DHT22;114;48.260;10.988;2022-11-27T08:00:34;-1.00;96.80
262;DHT22;114;48.260;10.988;2022-11-27T08:03:00;-1.00;96.10
262;DHT22;114;48.260;10.988;2022-11-27T08:05:26;-0.90;95.70
262;DHT22;114;48.260;10.988;2022-11-27T08:07:52;-0.90;94.80
262;DHT22;114;48.260;10.988;2022-11-27T08:10:18;-0.80;94.80
262;DHT22;114;48.260;10.988;2022-11-27T08:12:44;-0.80;94.00
262;DHT22;114;48.260;10.988;2022-11-27T08:15:11;-0.70;94.10
262;DHT22;114;48.260;10.988;2022-11-27T08:17:38;-0.50;94.60
262;DHT22;114;48.260;10.988;2022-11-27T08:20:05;-0.30;94.10
262;DHT22;114;48.260;10.988;2022-11-27T08:22:31;-0.30;93.10
262;DHT22;114;48.260;10.988;2022-11-27T08:24:57;-0.30;92.20
262;DHT22;114;48.260;10.988;2022-11-27T08:27:23;-0.30;91.60
262;DHT22;114;48.260;10.988;2022-11-27T08:29:48;-0.30;89.70
262;DHT22;114;48.260;10.988;2022-11-27T08:32:14;-0.20;90.10
262;DHT22;114;48.260;10.988;2022-11-27T08:34:41;-0.10;90.10
262;DHT22;114;48.260;10.988;2022-11-27T08:37:06;0.10;89.30
262;DHT22;114;48.260;10.988;2022-11-27T08:39:34;0.20;88.40
262;DHT22;114;48.260;10.988;2022-11-27T08:42:00;0.20;87.80
262;DHT22;114;48.260;10.988;2022-11-27T08:44:25;0.30;85.50
262;DHT22;114;48.260;10.988;2022-11-27T08:46:51;0.40;86.50
262;DHT22;114;48.260;10.988;2022-11-27T08:49:17;0.50;84.40
262;DHT22;114;48.260;10.988;2022-11-27T08:51:44;0.60;83.70
262;DHT22;114;48.260;10.988;2022-11-27T08:54:09;0.80;83.10
262;DHT22;114;48.260;10.988;2022-11-27T08:56:35;1.00;80.50
262;DHT22;114;48.260;10.988;2022-11-27T08:59:02;1.20;79.30
262;DHT22;114;48.260;10.988;2022-11-27T09:01:31;1.30;77.40
262;DHT22;114;48.260;10.988;2022-11-27T09:03:57;1.40;77.00
262;DHT22;114;48.260;10.988;2022-11-27T09:06:29;1.50;76.10
262;DHT22;114;48.260;10.988;2022-11-27T09:08:59;1.50;74.60
262;DHT22;114;48.260;10.988;2022-11-27T09:11:27;1.60;74.10
262;DHT22;114;48.260;10.988;2022-11-27T09:13:53;1.80;80.70
262;DHT22;114;48.260;10.988;2022-11-27T09:16:20;1.80;77.70
262;DHT22;114;48.260;10.988;2022-11-27T09:18:48;1.80;74.30
262;DHT22;114;48.260;10.988;2022-11-27T09:21:16;1.90;74.20
262;DHT22;114;48.260;10.988;2022-11-27T09:23:42;2.00;72.50
262;DHT22;114;48.260;10.988;2022-11-27T09:26:11;2.00;69.10
262;DHT22;114;48.260;10.988;2022-11-27T09:28:37;2.10;66.70
262;DHT22;114;48.260;10.988;2022-11-27T09:31:05;2.30;67.20
262;DHT22;114;48.260;10.988;2022-11-27T09:33:33;2.30;67.60
262;DHT22;114;48.260;10.988;2022-11-27T09:36:06;2.60;66.50
262;DHT22;114;48.260;10.988;2022-11-27T09:38:32;2.70;63.20
262;DHT22;114;48.260;10.988;2022-11-27T09:43:59;3.00;54.60
262;DHT22;114;48.260;10.988;2022-11-27T09:46:38;2.90;47.70
262;DHT22;114;48.260;10.988;2022-11-27T09:49:19;2.70;48.00
262;DHT22;114;48.260;10.988;2022-11-27T09:54:42;2.80;48.00
262;DHT22;114;48.260;10.988;2022-11-27T09:57:14;3.00;49.50
262;DHT22;114;48.260;10.988;2022-11-27T09:59:45;3.00;46.00
262;DHT22;114;48.260;10.988;2022-11-27T10:02:18;3.00;42.20
262;DHT22;114;48.260;10.988;2022-11-27T10:04:45;3.10;41.40
262;DHT22;114;48.260;10.988;2022-11-27T10:07:18;3.00;40.00
262;DHT22;114;48.260;10.988;2022-11-27T10:10:37;3.10;38.10
262;DHT22;114;48.260;10.988;2022-11-27T10:16:24;3.00;39.00
262;DHT22;114;48.260;10.988;2022-11-27T10:18:54;3.20;39.10
262;DHT22;114;48.260;10.988;2022-11-27T10:26:57;3.10;38.00
262;DHT22;114;48.260;10.988;2022-11-27T10:29:38;3.00;38.00
262;DHT22;114;48.260;10.988;2022-11-27T10:32:29;2.90;39.90
262;DHT22;114;48.260;10.988;2022-11-27T10:35:13;2.80;37.90
262;DHT22;114;48.260;10.988;2022-11-27T10:45:47;2.90;38.00
262;DHT22;114;48.260;10.988;2022-11-27T10:48:15;3.00;40.10
262;DHT22;114;48.260;10.988;2022-11-27T10:50:41;3.20;40.30
262;DHT22;114;48.260;10.988;2022-11-27T10:59:11;2.90;43.10
262;DHT22;114;48.260;10.988;2022-11-27T11:01:42;2.90;44.10
262;DHT22;114;48.260;10.988;2022-11-27T11:04:10;3.10;44.50
262;DHT22;114;48.260;10.988;2022-11-27T11:06:43;3.40;45.10
262;DHT22;114;48.260;10.988;2022-11-27T11:09:37;3.50;45.60
262;DHT22;114;48.260;10.988;2022-11-27T11:12:20;3.30;39.60
262;DHT22;114;48.260;10.988;2022-11-27T11:14:58;3.30;39.20
262;DHT22;114;48.260;10.988;2022-11-27T11:17:27;3.00;38.90
262;DHT22;114;48.260;10.988;2022-11-27T11:19:54;2.80;42.30
262;DHT22;114;48.260;10.988;2022-11-27T11:22:20;2.60;45.80
262;DHT22;114;48.260;10.988;2022-11-27T11:24:48;2.60;49.10
262;DHT22;114;48.260;10.988;2022-11-27T11:27:18;2.70;51.10
262;DHT22;114;48.260;10.988;2022-11-27T11:29:54;2.80;48.80
262;DHT22;114;48.260;10.988;2022-11-27T11:32:26;2.60;50.60
262;DHT22;114;48.260;10.988;2022-11-27T11:35:05;2.60;53.00
262;DHT22;114;48.260;10.988;2022-11-27T11:37:36;2.50;52.70
262;DHT22;114;48.260;10.988;2022-11-27T11:42:49;2.40;54.80
262;DHT22;114;48.260;10.988;2022-11-27T11:45:17;2.40;55.60
262;DHT22;114;48.260;10.988;2022-11-27T11:47:49;2.40;56.90
262;DHT22;114;48.260;10.988;2022-11-27T11:53:06;2.50;57.50
262;DHT22;114;48.260;10.988;2022-11-27T11:56:05;2.50;56.90
262;DHT22;114;48.260;10.988;2022-11-27T11:58:57;2.60;58.30
262;DHT22;114;48.260;10.988;2022-11-27T12:10:11;3.10;46.20
262;DHT22;114;48.260;10.988;2022-11-27T12:13:10;3.20;49.00
262;DHT22;114;48.260;10.988;2022-11-27T12:16:03;2.90;52.80
262;DHT22;114;48.260;10.988;2022-11-27T12:21:41;2.60;52.90
262;DHT22;114;48.260;10.988;2022-11-27T12:24:33;2.60;51.60
262;DHT22;114;48.260;10.988;2022-11-27T12:27:22;2.40;51.20
262;DHT22;114;48.260;10.988;2022-11-27T12:43:33;2.40;57.70
262;DHT22;114;48.260;10.988;2022-11-27T12:48:52;2.50;56.50
262;DHT22;114;48.260;10.988;2022-11-27T12:51:45;2.50;55.20
262;DHT22;114;48.260;10.988;2022-11-27T12:54:19;2.40;54.80
262;DHT22;114;48.260;10.988;2022-11-27T12:56:55;2.30;52.60
262;DHT22;114;48.260;10.988;2022-11-27T13:05:19;2.20;56.00
262;DHT22;114;48.260;10.988;2022-11-27T13:07:48;2.20;60.50
262;DHT22;114;48.260;10.988;2022-11-27T13:10:26;2.40;60.70
262;DHT22;114;48.260;10.988;2022-11-27T13:15:51;2.20;60.40
262;DHT22;114;48.260;10.988;2022-11-27T13:21:26;2.10;68.20
262;DHT22;114;48.260;10.988;2022-11-27T13:23:53;2.10;68.20
262;DHT22;114;48.260;10.988;2022-11-27T13:26:29;2.10;68.40
262;DHT22;114;48.260;10.988;2022-11-27T13:29:06;2.20;70.00
262;DHT22;114;48.260;10.988;2022-11-27T13:31:36;2.20;70.40
262;DHT22;114;48.260;10.988;2022-11-27T13:34:13;2.20;68.90
262;DHT22;114;48.260;10.988;2022-11-27T13:37:04;2.20;69.50
262;DHT22;114;48.260;10.988;2022-11-27T13:39:41;2.20;66.60
262;DHT22;114;48.260;10.988;2022-11-27T13:42:21;2.10;68.40
262;DHT22;114;48.260;10.988;2022-11-27T13:44:57;2.00;68.10
262;DHT22;114;48.260;10.988;2022-11-27T13:47:27;2.00;71.50
262;DHT22;114;48.260;10.988;2022-11-27T13:50:13;2.10;71.00
262;DHT22;114;48.260;10.988;2022-11-27T13:53:04;2.00;71.70
262;DHT22;114;48.260;10.988;2022-11-27T13:55:35;2.20;72.10
262;DHT22;114;48.260;10.988;2022-11-27T13:58:02;2.20;70.30
262;DHT22;114;48.260;10.988;2022-11-27T14:00:41;2.20;68.40
262;DHT22;114;48.260;10.988;2022-11-27T14:03:21;2.20;68.90
262;DHT22;114;48.260;10.988;2022-11-27T14:05:47;2.10;72.80
262;DHT22;114;48.260;10.988;2022-11-27T14:08:30;1.90;73.60
262;DHT22;114;48.260;10.988;2022-11-27T14:11:10;1.90;74.40
262;DHT22;114;48.260;10.988;2022-11-27T14:13:44;1.90;77.60
262;DHT22;114;48.260;10.988;2022-11-27T14:16:33;1.80;81.30
262;DHT22;114;48.260;10.988;2022-11-27T14:19:20;1.80;83.40
262;DHT22;114;48.260;10.988;2022-11-27T14:21:47;1.80;82.10
262;DHT22;114;48.260;10.988;2022-11-27T14:24:34;1.80;82.50
262;DHT22;114;48.260;10.988;2022-11-27T14:27:13;1.90;82.90
262;DHT22;114;48.260;10.988;2022-11-27T14:29:41;1.80;86.40
262;DHT22;114;48.260;10.988;2022-11-27T14:32:13;1.80;84.50
262;DHT22;114;48.260;10.988;2022-11-27T14:34:40;1.80;84.70
262;DHT22;114;48.260;10.988;2022-11-27T14:37:20;1.80;85.50
262;DHT22;114;48.260;10.988;2022-11-27T14:39:47;1.60;85.50
262;DHT22;114;48.260;10.988;2022-11-27T14:42:21;1.50;88.30
262;DHT22;114;48.260;10.988;2022-11-27T14:45:11;1.40;90.70
262;DHT22;114;48.260;10.988;2022-11-27T14:47:46;1.40;92.00
262;DHT22;114;48.260;10.988;2022-11-27T14:50:13;1.40;92.90
262;DHT22;114;48.260;10.988;2022-11-27T14:52:41;1.50;93.70
262;DHT22;114;48.260;10.988;2022-11-27T14:55:17;1.40;93.60
262;DHT22;114;48.260;10.988;2022-11-27T14:57:48;1.50;94.10
262;DHT22;114;48.260;10.988;2022-11-27T15:00:20;1.30;93.20
262;DHT22;114;48.260;10.988;2022-11-27T15:02:50;1.30;93.10
262;DHT22;114;48.260;10.988;2022-11-27T15:05:25;1.10;92.70
262;DHT22;114;48.260;10.988;2022-11-27T15:07:56;1.00;93.90
262;DHT22;114;48.260;10.988;2022-11-27T15:10:43;1.00;95.50
262;DHT22;114;48.260;10.988;2022-11-27T15:13:24;1.10;95.40
262;DHT22;114;48.260;10.988;2022-11-27T15:16:17;0.90;95.60
262;DHT22;114;48.260;10.988;2022-11-27T15:18:52;0.80;97.20
262;DHT22;114;48.260;10.988;2022-11-27T15:21:21;0.80;97.80
262;DHT22;114;48.260;10.988;2022-11-27T15:23:52;0.80;99.00
262;DHT22;114;48.260;10.988;2022-11-27T15:26:34;0.80;99.00
262;DHT22;114;48.260;10.988;2022-11-27T15:29:01;0.90;99.20
262;DHT22;114;48.260;10.988;2022-11-27T15:34:05;0.80;99.20
262;DHT22;114;48.260;10.988;2022-11-27T15:39:37;0.90;99.90
262;DHT22;114;48.260;10.988;2022-11-27T15:42:09;0.70;99.90
262;DHT22;114;48.260;10.988;2022-11-27T15:44:37;0.80;99.90
262;DHT22;114;48.260;10.988;2022-11-27T15:47:05;0.70;99.90
262;DHT22;114;48.260;10.988;2022-11-27T15:49:45;0.70;99.90
262;DHT22;114;48.260;10.988;2022-11-27T15:52:18;0.70;99.90
262;DHT22;114;48.260;10.988;2022-11-27T15:54:44;0.80;99.90
262;DHT22;114;48.260;10.988;2022-11-27T15:57:11;0.90;99.90
262;DHT22;114;48.260;10.988;2022-11-27T15:59:38;0.80;99.90
262;DHT22;114;48.260;10.988;2022-11-27T16:02:04;0.70;99.90
262;DHT22;114;48.260;10.988;2022-11-27T16:04:30;0.60;99.90
262;DHT22;114;48.260;10.988;2022-11-27T16:06:57;0.70;99.90
262;DHT22;114;48.260;10.988;2022-11-27T16:09:23;0.60;99.90
262;DHT22;114;48.260;10.988;2022-11-27T16:11:48;0.50;99.90
262;DHT22;114;48.260;10.988;2022-11-27T16:14:14;0.50;99.90
262;DHT22;114;48.260;10.988;2022-11-27T16:16:40;0.50;99.90
262;DHT22;114;48.260;10.988;2022-11-27T16:19:06;0.50;99.90
262;DHT22;114;48.260;10.988;2022-11-27T16:21:33;0.50;99.90
262;DHT22;114;48.260;10.988;2022-11-27T16:24:02;0.50;99.90
262;DHT22;114;48.260;10.988;2022-11-27T16:26:29;0.60;99.90
262;DHT22;114;48.260;10.988;2022-11-27T16:28:57;0.60;99.90
262;DHT22;114;48.260;10.988;2022-11-27T16:31:24;0.60;99.90
262;DHT22;114;48.260;10.988;2022-11-27T16:33:50;0.60;99.90
262;DHT22;114;48.260;10.988;2022-11-27T16:36:17;0.60;99.90
262;DHT22;114;48.260;10.988;2022-11-27T16:38:44;0.50;99.90
262;DHT22;114;48.260;10.988;2022-11-27T16:41:12;0.50;99.90
262;DHT22;114;48.260;10.988;2022-11-27T16:43:42;0.50;99.90
262;DHT22;114;48.260;10.988;2022-11-27T16:46:11;0.50;99.90
262;DHT22;114;48.260;10.988;2022-11-27T16:48:39;0.40;99.90
262;DHT22;114;48.260;10.988;2022-11-27T16:51:18;0.50;99.90
262;DHT22;114;48.260;10.988;2022-11-27T16:53:48;0.50;99.90
262;DHT22;114;48.260;10.988;2022-11-27T16:56:16;0.50;99.90
262;DHT22;114;48.260;10.988;2022-11-27T16:58:43;0.40;99.90
262;DHT22;114;48.260;10.988;2022-11-27T17:01:14;0.40;99.90
262;DHT22;114;48.260;10.988;2022-11-27T17:03:41;0.50;99.90
262;DHT22;114;48.260;10.988;2022-11-27T17:06:23;0.50;99.90
262;DHT22;114;48.260;10.988;2022-11-27T17:08:49;0.50;99.90
262;DHT22;114;48.260;10.988;2022-11-27T17:11:20;0.60;99.90
262;DHT22;114;48.260;10.988;2022-11-27T17:13:47;0.60;99.90
262;DHT22;114;48.260;10.988;2022-11-27T17:16:14;0.60;99.90
262;DHT22;114;48.260;10.988;2022-11-27T17:18:41;0.60;99.90
262;DHT22;114;48.260;10.988;2022-11-27T17:21:18;0.60;99.90
262;DHT22;114;48.260;10.988;2022-11-27T17:23:47;0.60;99.90
262;DHT22;114;48.260;10.988;2022-11-27T17:26:18;0.60;99.90
262;DHT22;114;48.260;10.988;2022-11-27T17:28:45;0.60;99.90
262;DHT22;114;48.260;10.988;2022-11-27T17:31:16;0.60;99.90
262;DHT22;114;48.260;10.988;2022-11-27T17:33:43;0.60;99.90
262;DHT22;114;48.260;10.988;2022-11-27T17:36:10;0.60;99.90
262;DHT22;114;48.260;10.988;2022-11-27T17:38:38;0.60;99.90
262;DHT22;114;48.260;10.988;2022-11-27T17:41:05;0.60;99.90
262;DHT22;114;48.260;10.988;2022-11-27T17:43:38;0.70;99.90
262;DHT22;114;48.260;10.988;2022-11-27T17:46:08;0.70;99.90
262;DHT22;114;48.260;10.988;2022-11-27T17:48:35;0.70;99.90
262;DHT22;114;48.260;10.988;2022-11-27T17:51:01;0.80;99.90
262;DHT22;114;48.260;10.988;2022-11-27T17:53:27;0.80;99.90
262;DHT22;114;48.260;10.988;2022-11-27T17:55:53;0.80;99.90
262;DHT22;114;48.260;10.988;2022-11-27T17:58:21;0.80;99.90
262;DHT22;114;48.260;10.988;2022-11-27T18:00:50;0.80;99.90
262;DHT22;114;48.260;10.988;2022-11-27T18:03:16;0.80;99.90
262;DHT22;114;48.260;10.988;2022-11-27T18:05:41;0.80;99.90
262;DHT22;114;48.260;10.988;2022-11-27T18:08:08;0.80;99.90
262;DHT22;114;48.260;10.988;2022-11-27T18:10:35;0.90;99.90
262;DHT22;114;48.260;10.988;2022-11-27T18:13:01;0.90;99.90
262;DHT22;114;48.260;10.988;2022-11-27T18:15:27;0.90;99.90
262;DHT22;114;48.260;10.988;2022-11-27T18:17:53;1.00;99.90
262;DHT22;114;48.260;10.988;2022-11-27T18:20:19;1.00;99.90
262;DHT22;114;48.260;10.988;2022-11-27T18:22:48;1.00;99.90
262;DHT22;114;48.260;10.988;2022-11-27T18:25:13;1.00;99.90
262;DHT22;114;48.260;10.988;2022-11-27T18:27:39;1.10;99.90
262;DHT22;114;48.260;10.988;2022-11-27T18:30:06;1.10;99.90
262;DHT22;114;48.260;10.988;2022-11-27T18:32:35;1.10;99.90
262;DHT22;114;48.260;10.988;2022-11-27T18:35:01;1.10;99.90
262;DHT22;114;48.260;10.988;2022-11-27T18:37:27;1.10;99.90